createdAt,value
2022-09-27T00:01:01.087Z,13.30
2022-09-27T00:03:29.079Z,13.30
2022-09-27T00:06:15.247Z,13.30
2022-09-27T00:08:42.687Z,13.30
2022-09-27T00:11:35.317Z,13.30
2022-09-27T00:14:02.108Z,13.40
2022-09-27T00:16:35.369Z,13.40
2022-09-27T00:19:05.351Z,13.40
2022-09-27T00:21:32.458Z,13.30
2022-09-27T00:23:59.803Z,13.30
2022-09-27T00:26:27.448Z,13.40
2022-09-27T00:28:54.280Z,13.40
2022-09-27T00:31:24.129Z,13.30
2022-09-27T00:33:53.223Z,13.20
2022-09-27T00:36:21.778Z,13.20
2022-09-27T00:38:48.600Z,13.20
2022-09-27T00:41:30.579Z,13.20
2022-09-27T00:44:04.525Z,13.20
2022-09-27T00:46:43.367Z,13.10
2022-09-27T00:49:25.672Z,13.10
2022-09-27T00:51:59.882Z,13.10
2022-09-27T00:54:29.340Z,13.00
2022-09-27T00:56:56.790Z,13.00
2022-09-27T00:59:50.681Z,13.10
2022-09-27T01:02:18.419Z,13.00
2022-09-27T01:04:47.607Z,13.00
2022-09-27T01:07:14.605Z,12.90
2022-09-27T01:09:41.735Z,12.90
2022-09-27T01:12:50.783Z,12.80
2022-09-27T01:15:54.012Z,12.70
2022-09-27T01:18:54.368Z,12.70
2022-09-27T01:21:51.023Z,12.60
2022-09-27T01:24:37.282Z,12.50
2022-09-27T01:27:16.030Z,12.50
2022-09-27T01:30:15.864Z,12.40
2022-09-27T01:32:58.379Z,12.30
2022-09-27T01:35:47.410Z,12.20
2022-09-27T01:38:42.490Z,12.10
2022-09-27T01:41:19.340Z,12.00
2022-09-27T01:44:00.817Z,11.80
2022-09-27T01:46:33.806Z,11.70
2022-09-27T01:49:05.806Z,11.70
2022-09-27T01:51:43.083Z,11.70
2022-09-27T01:54:14.966Z,11.70
2022-09-27T01:56:48.920Z,11.70
2022-09-27T01:59:22.868Z,11.60
2022-09-27T02:01:52.368Z,11.60
2022-09-27T02:04:26.733Z,11.60
2022-09-27T02:06:59.481Z,11.60
2022-09-27T02:09:35.532Z,11.60
2022-09-27T02:12:06.870Z,11.60
2022-09-27T02:14:42.486Z,11.60
2022-09-27T02:17:15.904Z,11.50
2022-09-27T02:20:05.233Z,11.40
2022-09-27T02:22:48.040Z,11.50
2022-09-27T02:25:43.143Z,11.50
2022-09-27T02:28:36.253Z,11.40
2022-09-27T02:31:03.046Z,11.30
2022-09-27T02:33:39.239Z,11.30
2022-09-27T02:36:06.279Z,11.30
2022-09-27T02:38:33.538Z,11.40
2022-09-27T02:41:00.305Z,11.40
2022-09-27T02:43:31.075Z,11.30
2022-09-27T02:45:58.291Z,11.30
2022-09-27T02:48:43.145Z,11.30
2022-09-27T02:51:28.001Z,11.30
2022-09-27T02:54:26.185Z,11.30
2022-09-27T02:57:20.485Z,11.30
2022-09-27T03:00:05.000Z,11.30
2022-09-27T03:02:41.131Z,11.30
2022-09-27T03:05:17.490Z,11.30
2022-09-27T03:07:44.597Z,11.20
2022-09-27T03:10:18.704Z,11.20
2022-09-27T03:12:45.454Z,11.20
2022-09-27T03:15:12.248Z,11.20
2022-09-27T03:17:38.965Z,11.20
2022-09-27T03:20:06.964Z,11.20
2022-09-27T03:22:33.713Z,11.20
2022-09-27T03:25:00.644Z,11.30
2022-09-27T03:27:27.363Z,11.30
2022-09-27T03:29:54.107Z,11.30
2022-09-27T03:32:20.905Z,11.40
2022-09-27T03:34:47.650Z,11.30
2022-09-27T03:37:14.377Z,11.30
2022-09-27T03:39:41.109Z,11.30
2022-09-27T03:42:07.789Z,11.30
2022-09-27T03:44:34.508Z,11.30
2022-09-27T03:47:01.546Z,11.30
2022-09-27T03:49:28.458Z,11.20
2022-09-27T03:51:55.170Z,11.20
2022-09-27T03:54:21.894Z,11.20
2022-09-27T03:56:48.584Z,11.20
2022-09-27T03:59:15.528Z,11.30
2022-09-27T04:01:44.591Z,11.20
2022-09-27T04:04:11.590Z,11.20
2022-09-27T04:06:38.322Z,11.20
2022-09-27T04:09:05.066Z,11.20
2022-09-27T04:11:31.807Z,11.30
2022-09-27T04:13:58.881Z,11.30
2022-09-27T04:16:25.735Z,11.30
2022-09-27T04:18:52.501Z,11.20
2022-09-27T04:21:20.667Z,11.20
2022-09-27T04:23:47.421Z,11.20
2022-09-27T04:26:14.323Z,11.20
2022-09-27T04:28:41.027Z,11.20
2022-09-27T04:31:07.902Z,11.20
2022-09-27T04:33:34.727Z,11.20
2022-09-27T04:36:20.090Z,11.20
2022-09-27T04:38:48.037Z,11.30
2022-09-27T04:41:15.412Z,11.20
2022-09-27T04:43:42.275Z,11.30
2022-09-27T04:46:09.034Z,11.30
2022-09-27T04:48:35.832Z,11.30
2022-09-27T04:51:03.137Z,11.30
2022-09-27T04:53:30.385Z,11.40
2022-09-27T04:55:57.709Z,11.30
2022-09-27T04:58:24.962Z,11.40
2022-09-27T05:00:55.874Z,11.40
2022-09-27T05:03:23.407Z,11.40
2022-09-27T05:05:50.134Z,11.30
2022-09-27T05:08:16.948Z,11.30
2022-09-27T05:10:43.634Z,11.20
2022-09-27T05:13:10.417Z,11.20
2022-09-27T05:15:37.212Z,11.10
2022-09-27T05:18:03.924Z,11.20
2022-09-27T05:20:30.795Z,11.20
2022-09-27T05:22:57.467Z,11.20
2022-09-27T05:25:24.430Z,11.20
2022-09-27T05:27:51.693Z,11.30
2022-09-27T05:30:18.939Z,11.30
2022-09-27T05:32:48.840Z,11.20
2022-09-27T05:35:18.215Z,11.20
2022-09-27T05:37:54.033Z,11.20
2022-09-27T05:40:40.432Z,11.20
2022-09-27T05:43:08.295Z,11.20
2022-09-27T05:45:35.036Z,11.20
2022-09-27T05:48:02.002Z,11.20
2022-09-27T05:50:28.896Z,11.10
2022-09-27T05:52:55.638Z,11.00
2022-09-27T05:55:22.496Z,11.00
2022-09-27T05:57:57.358Z,11.00
2022-09-27T06:00:25.844Z,11.00
2022-09-27T06:03:00.576Z,10.90
2022-09-27T06:05:31.236Z,10.90
2022-09-27T06:08:04.436Z,10.90
2022-09-27T06:10:32.473Z,10.80
2022-09-27T06:13:12.239Z,10.90
2022-09-27T06:15:40.562Z,10.90
2022-09-27T06:18:12.686Z,10.90
2022-09-27T06:20:41.551Z,10.90
2022-09-27T06:23:09.546Z,11.00
2022-09-27T06:25:37.348Z,11.10
2022-09-27T06:28:05.011Z,11.10
2022-09-27T06:30:32.835Z,11.30
2022-09-27T06:33:03.286Z,11.30
2022-09-27T06:35:31.261Z,11.50
2022-09-27T06:37:58.546Z,11.70
2022-09-27T06:40:26.343Z,11.80
2022-09-27T06:42:53.572Z,11.90
2022-09-27T06:45:20.420Z,12.00
2022-09-27T06:47:47.256Z,12.20
2022-09-27T06:50:14.430Z,12.10
2022-09-27T06:52:48.665Z,12.10
2022-09-27T06:55:16.492Z,12.00
2022-09-27T06:58:01.886Z,12.00
2022-09-27T07:00:28.857Z,12.10
2022-09-27T07:03:00.879Z,12.10
2022-09-27T07:05:29.246Z,12.10
2022-09-27T07:07:57.741Z,12.10
2022-09-27T07:10:30.092Z,12.10
2022-09-27T07:12:58.322Z,12.00
2022-09-27T07:15:25.235Z,12.10
2022-09-27T07:17:58.538Z,12.00
2022-09-27T07:20:26.652Z,12.00
2022-09-27T07:22:53.483Z,12.00
2022-09-27T07:25:20.214Z,11.90
2022-09-27T07:27:46.926Z,11.80
2022-09-27T07:30:14.264Z,11.70
2022-09-27T07:32:41.103Z,11.60
2022-09-27T07:35:09.593Z,11.60
2022-09-27T07:37:37.578Z,11.60
2022-09-27T07:40:07.489Z,11.60
2022-09-27T07:42:34.416Z,11.60
2022-09-27T07:45:01.104Z,11.60
2022-09-27T07:47:27.881Z,11.60
2022-09-27T07:49:54.571Z,11.60
2022-09-27T07:52:21.828Z,11.60
2022-09-27T07:54:48.878Z,11.60
2022-09-27T07:57:16.222Z,11.80
2022-09-27T07:59:43.263Z,12.00
2022-09-27T08:02:15.211Z,12.30
2022-09-27T08:04:43.669Z,12.60
2022-09-27T08:07:14.238Z,12.90
2022-09-27T08:09:41.579Z,13.10
2022-09-27T08:12:08.559Z,13.30
2022-09-27T08:14:39.764Z,13.20
2022-09-27T08:17:11.830Z,13.20
2022-09-27T08:19:39.603Z,13.10
2022-09-27T08:22:07.859Z,12.80
2022-09-27T08:24:34.569Z,12.70
2022-09-27T08:27:02.370Z,12.70
2022-09-27T08:29:29.091Z,12.80
2022-09-27T08:31:55.869Z,12.70
2022-09-27T08:34:23.195Z,12.80
2022-09-27T08:36:49.881Z,12.90
2022-09-27T08:39:16.801Z,13.00
2022-09-27T08:41:52.721Z,13.00
2022-09-27T08:45:02.401Z,13.20
2022-09-27T08:47:43.712Z,13.50
2022-09-27T08:50:40.045Z,13.70
2022-09-27T08:53:28.086Z,13.80
2022-09-27T08:55:59.331Z,13.70
2022-09-27T08:58:30.868Z,13.80
2022-09-27T09:01:03.504Z,13.70
2022-09-27T09:03:34.569Z,13.80
2022-09-27T09:06:22.553Z,13.90
2022-09-27T09:09:04.058Z,14.00
2022-09-27T09:12:21.284Z,14.10
2022-09-27T09:15:08.696Z,14.20
2022-09-27T09:17:57.244Z,14.10
2022-09-27T09:21:03.147Z,14.20
2022-09-27T09:23:38.826Z,14.20
2022-09-27T09:26:32.044Z,14.20
2022-09-27T09:29:05.662Z,14.50
2022-09-27T09:31:51.937Z,14.40
2022-09-27T09:34:38.909Z,14.20
2022-09-27T09:37:25.843Z,13.90
2022-09-27T09:39:58.492Z,13.70
2022-09-27T09:42:35.890Z,13.80
2022-09-27T09:45:16.164Z,14.00
2022-09-27T09:48:03.320Z,14.10
2022-09-27T09:50:43.233Z,14.50
2022-09-27T09:53:12.978Z,14.50
2022-09-27T09:55:42.408Z,14.50
2022-09-27T09:58:19.892Z,14.30
2022-09-27T10:00:50.680Z,14.20
2022-09-27T10:03:17.569Z,14.20
2022-09-27T10:05:45.569Z,14.20
2022-09-27T10:08:22.235Z,14.30
2022-09-27T10:10:48.982Z,14.30
2022-09-27T10:13:18.640Z,14.20
2022-09-27T10:16:05.276Z,14.10
2022-09-27T10:18:32.914Z,14.00
2022-09-27T10:21:04.113Z,14.00
2022-09-27T10:23:31.406Z,13.90
2022-09-27T10:26:04.625Z,13.90
2022-09-27T10:28:34.060Z,13.90
2022-09-27T10:31:03.882Z,13.90
2022-09-27T10:33:31.812Z,13.90
2022-09-27T10:35:59.608Z,13.90
2022-09-27T10:38:35.866Z,13.80
2022-09-27T10:41:31.624Z,13.90
2022-09-27T10:44:18.557Z,13.90
2022-09-27T10:46:50.834Z,13.90
2022-09-27T10:49:31.878Z,14.10
2022-09-27T10:52:02.308Z,14.10
2022-09-27T10:54:32.409Z,14.20
2022-09-27T10:57:01.959Z,14.10
2022-09-27T10:59:31.440Z,14.10
2022-09-27T11:01:58.667Z,14.00
2022-09-27T11:04:34.656Z,13.90
2022-09-27T11:07:20.417Z,13.80
2022-09-27T11:10:03.178Z,13.70
2022-09-27T11:12:32.025Z,13.50
2022-09-27T11:15:02.763Z,13.40
2022-09-27T11:17:57.167Z,13.20
2022-09-27T11:20:44.168Z,12.90
2022-09-27T11:23:19.752Z,12.40
2022-09-27T11:26:25.002Z,12.40
2022-09-27T11:29:21.088Z,12.20
2022-09-27T11:32:20.077Z,12.20
2022-09-27T11:34:55.583Z,12.20
2022-09-27T11:37:57.296Z,12.40
2022-09-27T11:41:08.724Z,12.50
2022-09-27T11:43:48.973Z,12.30
2022-09-27T11:46:36.612Z,12.30
2022-09-27T11:49:21.850Z,12.30
2022-09-27T11:51:51.276Z,12.30
2022-09-27T11:54:46.617Z,12.30
2022-09-27T11:57:26.423Z,12.40
2022-09-27T12:00:12.327Z,12.50
2022-09-27T12:02:39.061Z,12.60
2022-09-27T12:05:29.054Z,12.60
2022-09-27T12:08:07.378Z,12.90
2022-09-27T12:10:38.149Z,13.00
2022-09-27T12:13:05.433Z,13.20
2022-09-27T12:15:40.401Z,13.40
2022-09-27T12:18:16.896Z,13.60
2022-09-27T12:20:44.227Z,13.60
2022-09-27T12:23:36.951Z,13.70
2022-09-27T12:26:13.981Z,13.90
2022-09-27T12:28:54.203Z,13.90
2022-09-27T12:31:58.687Z,13.80
2022-09-27T12:34:43.185Z,14.00
2022-09-27T12:37:25.269Z,14.20
2022-09-27T12:40:53.469Z,14.10
2022-09-27T12:43:29.058Z,14.20
2022-09-27T12:46:13.277Z,14.10
2022-09-27T12:48:51.182Z,14.10
2022-09-27T12:51:20.897Z,14.10
2022-09-27T12:54:14.939Z,14.10
2022-09-27T12:57:03.498Z,14.10
2022-09-27T12:59:34.263Z,14.30
2022-09-27T13:02:26.996Z,14.40
2022-09-27T13:05:17.121Z,14.40
2022-09-27T13:08:15.759Z,14.40
2022-09-27T13:11:05.926Z,14.40
2022-09-27T13:13:36.585Z,14.40
2022-09-27T13:16:05.044Z,14.30
2022-09-27T13:18:53.025Z,14.30
2022-09-27T13:21:51.509Z,14.20
2022-09-27T13:24:44.860Z,14.20
2022-09-27T13:27:23.659Z,14.10
2022-09-27T13:29:51.587Z,14.20
2022-09-27T13:32:26.219Z,14.20
2022-09-27T13:34:56.598Z,14.30
2022-09-27T13:37:29.087Z,14.30
2022-09-27T13:40:27.568Z,14.40
2022-09-27T13:43:03.407Z,14.30
2022-09-27T13:45:41.651Z,14.20
2022-09-27T13:48:16.050Z,14.30
2022-09-27T13:50:51.664Z,14.40
2022-09-27T13:53:30.277Z,14.40
2022-09-27T13:55:57.347Z,14.30
2022-09-27T13:58:55.916Z,14.30
2022-09-27T14:01:30.570Z,14.20
2022-09-27T14:04:21.976Z,14.30
2022-09-27T14:06:53.274Z,14.30
2022-09-27T14:09:41.111Z,14.30
2022-09-27T14:12:16.475Z,14.30
2022-09-27T14:14:43.689Z,14.20
2022-09-27T14:17:11.633Z,14.10
2022-09-27T14:19:44.651Z,14.00
2022-09-27T14:22:16.460Z,14.00
2022-09-27T14:24:44.318Z,13.90
2022-09-27T14:27:29.452Z,13.80
2022-09-27T14:30:20.737Z,13.70
2022-09-27T14:33:01.872Z,13.70
2022-09-27T14:35:49.161Z,13.60
2022-09-27T14:38:37.232Z,13.70
2022-09-27T14:41:07.920Z,13.50
2022-09-27T14:43:37.082Z,13.40
2022-09-27T14:46:07.038Z,13.30
2022-09-27T14:48:34.078Z,13.30
2022-09-27T14:51:14.300Z,13.30
2022-09-27T14:53:53.283Z,13.20
2022-09-27T14:56:22.812Z,13.10
2022-09-27T14:58:58.527Z,13.10
2022-09-27T15:01:25.780Z,13.00
2022-09-27T15:03:53.622Z,12.70
2022-09-27T15:06:21.006Z,12.50
2022-09-27T15:08:50.320Z,12.20
2022-09-27T15:11:19.416Z,12.00
2022-09-27T15:13:51.222Z,11.80
2022-09-27T15:16:20.660Z,11.60
2022-09-27T15:18:50.561Z,11.40
2022-09-27T15:21:35.626Z,11.20
2022-09-27T15:24:03.370Z,11.10
2022-09-27T15:26:45.920Z,11.10
2022-09-27T15:29:24.622Z,11.10
2022-09-27T15:32:04.144Z,10.90
2022-09-27T15:34:33.868Z,10.90
2022-09-27T15:37:06.236Z,10.90
2022-09-27T15:39:39.113Z,10.90
2022-09-27T15:42:17.250Z,10.90
2022-09-27T15:44:50.994Z,10.90
2022-09-27T15:47:36.412Z,10.90
2022-09-27T15:50:15.133Z,10.90
2022-09-27T15:52:44.090Z,10.90
2022-09-27T15:55:14.946Z,10.90
2022-09-27T15:57:42.036Z,10.90
2022-09-27T16:00:20.645Z,11.00
2022-09-27T16:02:47.909Z,11.00
2022-09-27T16:05:14.637Z,11.00
2022-09-27T16:07:41.822Z,11.10
2022-09-27T16:10:15.427Z,11.10
2022-09-27T16:12:42.133Z,11.10
2022-09-27T16:15:09.235Z,11.10
2022-09-27T16:17:37.914Z,11.10
2022-09-27T16:20:06.097Z,11.10
2022-09-27T16:22:32.848Z,11.00
2022-09-27T16:24:59.603Z,11.00
2022-09-27T16:27:27.467Z,10.90
2022-09-27T16:29:54.652Z,10.90
2022-09-27T16:32:21.604Z,10.90
2022-09-27T16:34:48.469Z,10.90
2022-09-27T16:37:15.409Z,10.90
2022-09-27T16:39:42.156Z,10.70
2022-09-27T16:42:09.981Z,10.60
2022-09-27T16:44:36.737Z,10.60
2022-09-27T16:47:04.589Z,10.60
2022-09-27T16:49:50.175Z,10.60
2022-09-27T16:52:16.951Z,10.60
2022-09-27T16:54:43.741Z,10.50
2022-09-27T16:57:10.576Z,10.40
2022-09-27T16:59:37.584Z,10.30
2022-09-27T17:02:05.563Z,10.30
2022-09-27T17:04:32.401Z,10.20
2022-09-27T17:06:59.146Z,10.10
2022-09-27T17:09:25.843Z,10.10
2022-09-27T17:11:52.723Z,10.10
2022-09-27T17:14:19.810Z,10.10
2022-09-27T17:16:48.334Z,10.00
2022-09-27T17:19:16.739Z,10.00
2022-09-27T17:21:43.668Z,10.00
2022-09-27T17:24:10.829Z,9.90
2022-09-27T17:26:38.072Z,9.90
2022-09-27T17:29:04.790Z,9.90
2022-09-27T17:31:34.179Z,9.80
2022-09-27T17:34:01.916Z,9.80
2022-09-27T17:36:33.895Z,9.80
2022-09-27T17:39:01.471Z,9.80
2022-09-27T17:41:29.184Z,9.90
2022-09-27T17:43:58.859Z,9.80
2022-09-27T17:46:28.154Z,9.80
2022-09-27T17:49:13.431Z,9.80
2022-09-27T17:51:41.822Z,9.70
2022-09-27T17:54:10.350Z,9.70
2022-09-27T17:56:38.329Z,9.80
2022-09-27T17:59:05.901Z,9.80
2022-09-27T18:01:33.221Z,9.80
2022-09-27T18:04:01.561Z,9.80
2022-09-27T18:06:29.188Z,9.90
2022-09-27T18:08:56.769Z,9.90
2022-09-27T18:11:28.966Z,9.90
2022-09-27T18:14:01.726Z,9.90
2022-09-27T18:16:32.359Z,9.90
2022-09-27T18:19:02.922Z,9.90
2022-09-27T18:21:31.485Z,9.90
2022-09-27T18:24:00.111Z,9.90
2022-09-27T18:26:28.898Z,10.00
2022-09-27T18:29:00.247Z,9.90
2022-09-27T18:31:27.143Z,9.90
2022-09-27T18:33:54.066Z,9.90
2022-09-27T18:36:23.382Z,9.90
2022-09-27T18:39:01.304Z,10.00
2022-09-27T18:41:30.672Z,10.10
2022-09-27T18:44:00.953Z,10.10
2022-09-27T18:46:36.927Z,10.20
2022-09-27T18:49:05.948Z,10.20
2022-09-27T18:51:34.031Z,10.30
2022-09-27T18:54:02.939Z,10.20
2022-09-27T18:56:30.681Z,10.20
2022-09-27T18:58:58.763Z,10.30
2022-09-27T19:01:25.815Z,10.30
2022-09-27T19:03:53.160Z,10.30
2022-09-27T19:06:22.888Z,10.40
2022-09-27T19:08:58.931Z,10.40
2022-09-27T19:11:27.127Z,10.40
2022-09-27T19:13:56.090Z,10.50
2022-09-27T19:16:23.967Z,10.50
2022-09-27T19:18:50.950Z,10.60
2022-09-27T19:21:23.171Z,10.60
2022-09-27T19:23:51.439Z,10.50
2022-09-27T19:26:20.574Z,10.60
2022-09-27T19:28:47.615Z,10.60
2022-09-27T19:31:25.503Z,10.60
2022-09-27T19:33:58.971Z,10.60
2022-09-27T19:36:27.353Z,10.60
2022-09-27T19:38:54.597Z,10.60
2022-09-27T19:41:21.288Z,10.60
2022-09-27T19:43:52.199Z,10.60
2022-09-27T19:46:20.224Z,10.50
2022-09-27T19:48:49.581Z,10.50
2022-09-27T19:51:27.230Z,10.50
2022-09-27T19:53:55.007Z,10.50
2022-09-27T19:56:22.730Z,10.50
2022-09-27T19:58:49.807Z,10.50
2022-09-27T20:01:22.314Z,10.50
2022-09-27T20:03:50.678Z,10.50
2022-09-27T20:06:19.295Z,10.50
2022-09-27T20:08:47.919Z,10.50
2022-09-27T20:11:17.538Z,10.60
2022-09-27T20:13:44.991Z,10.60
2022-09-27T20:16:17.639Z,10.60
2022-09-27T20:18:46.753Z,10.70
2022-09-27T20:21:14.441Z,10.70
2022-09-27T20:23:41.672Z,10.60
2022-09-27T20:26:10.926Z,10.50
2022-09-27T20:28:42.631Z,10.40
2022-09-27T20:31:11.574Z,10.10
2022-09-27T20:33:41.373Z,9.90
2022-09-27T20:36:18.676Z,9.80
2022-09-27T20:38:47.935Z,9.70
2022-09-27T20:41:19.601Z,9.70
2022-09-27T20:43:51.837Z,9.60
2022-09-27T20:46:19.685Z,9.50
2022-09-27T20:48:52.255Z,9.40
2022-09-27T20:51:19.276Z,9.40
2022-09-27T20:53:46.494Z,9.40
2022-09-27T20:56:30.646Z,9.40
2022-09-27T20:58:59.267Z,9.40
2022-09-27T21:01:28.016Z,9.40
2022-09-27T21:03:59.751Z,9.50
2022-09-27T21:06:27.333Z,9.50
2022-09-27T21:08:55.383Z,9.60
2022-09-27T21:11:22.843Z,9.50
2022-09-27T21:13:50.581Z,9.50
2022-09-27T21:16:23.062Z,9.60
2022-09-27T21:18:51.511Z,9.60
2022-09-27T21:21:19.110Z,9.60
2022-09-27T21:23:46.728Z,9.60
2022-09-27T21:26:21.843Z,9.60
2022-09-27T21:28:54.296Z,9.60
2022-09-27T21:31:24.033Z,9.60
2022-09-27T21:33:54.635Z,9.60
2022-09-27T21:36:23.620Z,9.70
2022-09-27T21:38:51.046Z,9.70
2022-09-27T21:41:19.163Z,9.70
2022-09-27T21:43:48.831Z,9.70
2022-09-27T21:46:27.205Z,9.70
2022-09-27T21:49:03.137Z,9.70
2022-09-27T21:51:41.657Z,9.70
2022-09-27T21:54:14.730Z,9.70
2022-09-27T21:56:42.555Z,9.70
2022-09-27T21:59:15.080Z,9.70
2022-09-27T22:01:46.112Z,9.70
2022-09-27T22:04:13.190Z,9.70
2022-09-27T22:06:40.011Z,9.60
2022-09-27T22:09:15.563Z,9.60
2022-09-27T22:11:44.213Z,9.60
2022-09-27T22:14:12.198Z,9.60
2022-09-27T22:16:39.065Z,9.60
2022-09-27T22:19:05.916Z,9.60
2022-09-27T22:21:35.710Z,9.60
2022-09-27T22:24:07.954Z,9.60
2022-09-27T22:26:37.896Z,9.60
2022-09-27T22:29:05.962Z,9.60
2022-09-27T22:31:33.369Z,9.60
2022-09-27T22:34:03.539Z,9.60
2022-09-27T22:36:31.502Z,9.60
2022-09-27T22:38:58.550Z,9.60
2022-09-27T22:41:26.014Z,9.60
2022-09-27T22:43:56.059Z,9.60
2022-09-27T22:46:22.860Z,9.60
2022-09-27T22:48:49.844Z,9.50
2022-09-27T22:51:17.079Z,9.60
2022-09-27T22:53:44.356Z,9.60
2022-09-27T22:56:15.768Z,9.60
2022-09-27T22:58:43.945Z,9.60
2022-09-27T23:01:19.260Z,9.60
2022-09-27T23:03:47.309Z,9.50
2022-09-27T23:06:16.291Z,9.60
2022-09-27T23:08:43.214Z,9.60
2022-09-27T23:11:12.870Z,9.60
2022-09-27T23:13:43.843Z,9.60
2022-09-27T23:16:16.133Z,9.70
2022-09-27T23:18:44.129Z,9.80
2022-09-27T23:21:12.872Z,9.80
2022-09-27T23:23:42.065Z,9.80
2022-09-27T23:26:11.325Z,9.90
2022-09-27T23:28:38.167Z,9.90
2022-09-27T23:31:13.579Z,9.80
2022-09-27T23:33:42.734Z,9.90
2022-09-27T23:36:12.151Z,9.80
2022-09-27T23:38:41.008Z,9.80
2022-09-27T23:41:08.337Z,9.80
2022-09-27T23:43:36.396Z,9.80
2022-09-27T23:46:05.512Z,9.80
2022-09-27T23:48:34.315Z,9.80
2022-09-27T23:51:02.075Z,9.80
2022-09-27T23:53:28.791Z,9.80
2022-09-27T23:56:06.608Z,9.90
2022-09-27T23:58:41.080Z,9.90
